sensor_id;sensor_type;location;lat;lon;timestamp;P1;durP1;ratioP1;P2;durP2;ratioP2
66800;SDS011;53703;50.326;19.122;2023-06-22T00:01:02;11.00;;;7.10;;
66800;SDS011;53703;50.326;19.122;2023-06-22T00:03:56;10.30;;;7.10;;
66800;SDS011;53703;50.326;19.122;2023-06-22T00:06:50;11.90;;;7.30;;
66800;SDS011;53703;50.326;19.122;2023-06-22T00:09:44;12.10;;;7.00;;
66800;SDS011;53703;50.326;19.122;2023-06-22T00:12:38;11.20;;;7.10;;
66800;SDS011;53703;50.326;19.122;2023-06-22T00:15:30;13.00;;;6.90;;
66800;SDS011;53703;50.326;19.122;2023-06-22T00:18:24;15.60;;;7.30;;
66800;SDS011;53703;50.326;19.122;2023-06-22T00:21:19;11.40;;;7.30;;
66800;SDS011;53703;50.326;19.122;2023-06-22T00:24:13;12.90;;;7.30;;
66800;SDS011;53703;50.326;19.122;2023-06-22T00:27:07;13.80;;;7.40;;
66800;SDS011;53703;50.326;19.122;2023-06-22T00:30:00;11.30;;;6.80;;
66800;SDS011;53703;50.326;19.122;2023-06-22T00:32:55;15.40;;;6.70;;
66800;SDS011;53703;50.326;19.122;2023-06-22T00:35:49;12.30;;;7.70;;
66800;SDS011;53703;50.326;19.122;2023-06-22T00:38:44;12.60;;;7.00;;
66800;SDS011;53703;50.326;19.122;2023-06-22T00:41:40;13.20;;;7.30;;
66800;SDS011;53703;50.326;19.122;2023-06-22T00:44:33;13.20;;;6.90;;
66800;SDS011;53703;50.326;19.122;2023-06-22T00:47:28;14.60;;;7.30;;
66800;SDS011;53703;50.326;19.122;2023-06-22T00:50:24;11.00;;;6.90;;
66800;SDS011;53703;50.326;19.122;2023-06-22T00:53:19;10.70;;;6.30;;
66800;SDS011;53703;50.326;19.122;2023-06-22T00:56:13;14.00;;;7.00;;
66800;SDS011;53703;50.326;19.122;2023-06-22T00:59:10;12.40;;;7.10;;
66800;SDS011;53703;50.326;19.122;2023-06-22T01:02:08;11.90;;;6.40;;
66800;SDS011;53703;50.326;19.122;2023-06-22T01:05:02;11.60;;;6.80;;
66800;SDS011;53703;50.326;19.122;2023-06-22T01:08:08;13.00;;;7.00;;
66800;SDS011;53703;50.326;19.122;2023-06-22T01:11:10;13.20;;;7.10;;
66800;SDS011;53703;50.326;19.122;2023-06-22T01:14:12;13.90;;;7.10;;
66800;SDS011;53703;50.326;19.122;2023-06-22T01:17:12;11.50;;;6.70;;
66800;SDS011;53703;50.326;19.122;2023-06-22T01:20:09;15.30;;;7.00;;
66800;SDS011;53703;50.326;19.122;2023-06-22T01:23:17;16.70;;;7.30;;
66800;SDS011;53703;50.326;19.122;2023-06-22T01:26:20;14.10;;;7.10;;
66800;SDS011;53703;50.326;19.122;2023-06-22T01:29:20;19.50;;;6.90;;
66800;SDS011;53703;50.326;19.122;2023-06-22T01:32:16;14.60;;;6.80;;
66800;SDS011;53703;50.326;19.122;2023-06-22T01:35:12;12.40;;;6.40;;
66800;SDS011;53703;50.326;19.122;2023-06-22T01:38:07;12.50;;;7.00;;
66800;SDS011;53703;50.326;19.122;2023-06-22T01:41:02;15.00;;;7.20;;
66800;SDS011;53703;50.326;19.122;2023-06-22T01:43:56;12.30;;;6.40;;
66800;SDS011;53703;50.326;19.122;2023-06-22T01:46:51;14.10;;;6.90;;
66800;SDS011;53703;50.326;19.122;2023-06-22T01:49:45;16.10;;;6.40;;
66800;SDS011;53703;50.326;19.122;2023-06-22T01:52:39;11.80;;;6.30;;
66800;SDS011;53703;50.326;19.122;2023-06-22T01:55:34;11.70;;;6.30;;
66800;SDS011;53703;50.326;19.122;2023-06-22T01:58:29;15.20;;;6.90;;
66800;SDS011;53703;50.326;19.122;2023-06-22T02:01:26;13.00;;;6.20;;
66800;SDS011;53703;50.326;19.122;2023-06-22T02:04:26;11.30;;;6.60;;
66800;SDS011;53703;50.326;19.122;2023-06-22T02:07:28;13.80;;;6.80;;
66800;SDS011;53703;50.326;19.122;2023-06-22T02:10:24;15.00;;;6.40;;
66800;SDS011;53703;50.326;19.122;2023-06-22T02:13:21;11.80;;;6.50;;
66800;SDS011;53703;50.326;19.122;2023-06-22T02:16:16;10.30;;;6.30;;
66800;SDS011;53703;50.326;19.122;2023-06-22T02:19:10;12.70;;;6.30;;
66800;SDS011;53703;50.326;19.122;2023-06-22T02:22:06;11.80;;;6.40;;
66800;SDS011;53703;50.326;19.122;2023-06-22T02:25:00;11.70;;;6.40;;
66800;SDS011;53703;50.326;19.122;2023-06-22T02:27:55;10.60;;;6.40;;
66800;SDS011;53703;50.326;19.122;2023-06-22T02:30:49;13.40;;;6.30;;
66800;SDS011;53703;50.326;19.122;2023-06-22T02:33:43;12.30;;;7.10;;
66800;SDS011;53703;50.326;19.122;2023-06-22T02:36:37;12.30;;;6.50;;
66800;SDS011;53703;50.326;19.122;2023-06-22T02:39:31;15.30;;;6.90;;
66800;SDS011;53703;50.326;19.122;2023-06-22T02:42:25;15.30;;;7.00;;
66800;SDS011;53703;50.326;19.122;2023-06-22T02:45:19;16.10;;;7.20;;
66800;SDS011;53703;50.326;19.122;2023-06-22T02:48:13;13.70;;;6.60;;
66800;SDS011;53703;50.326;19.122;2023-06-22T02:51:07;14.30;;;6.60;;
66800;SDS011;53703;50.326;19.122;2023-06-22T02:54:01;13.10;;;6.70;;
66800;SDS011;53703;50.326;19.122;2023-06-22T02:56:55;13.90;;;6.60;;
66800;SDS011;53703;50.326;19.122;2023-06-22T02:59:49;13.80;;;7.20;;
66800;SDS011;53703;50.326;19.122;2023-06-22T03:02:42;12.20;;;6.90;;
66800;SDS011;53703;50.326;19.122;2023-06-22T03:05:36;12.70;;;6.60;;
66800;SDS011;53703;50.326;19.122;2023-06-22T03:08:31;28.20;;;7.80;;
66800;SDS011;53703;50.326;19.122;2023-06-22T03:11:25;14.20;;;6.70;;
66800;SDS011;53703;50.326;19.122;2023-06-22T03:14:19;12.60;;;6.80;;
66800;SDS011;53703;50.326;19.122;2023-06-22T03:17:12;12.70;;;6.20;;
66800;SDS011;53703;50.326;19.122;2023-06-22T03:20:08;15.60;;;6.40;;
66800;SDS011;53703;50.326;19.122;2023-06-22T03:23:03;12.70;;;5.90;;
66800;SDS011;53703;50.326;19.122;2023-06-22T03:25:57;15.10;;;6.60;;
66800;SDS011;53703;50.326;19.122;2023-06-22T03:28:51;13.00;;;6.10;;
66800;SDS011;53703;50.326;19.122;2023-06-22T03:31:45;13.80;;;6.30;;
66800;SDS011;53703;50.326;19.122;2023-06-22T03:34:39;12.60;;;6.40;;
66800;SDS011;53703;50.326;19.122;2023-06-22T03:37:38;13.30;;;6.20;;
66800;SDS011;53703;50.326;19.122;2023-06-22T03:40:32;13.00;;;6.90;;
66800;SDS011;53703;50.326;19.122;2023-06-22T03:43:26;13.90;;;6.80;;
66800;SDS011;53703;50.326;19.122;2023-06-22T03:46:20;11.50;;;6.50;;
66800;SDS011;53703;50.326;19.122;2023-06-22T03:49:14;13.40;;;7.10;;
66800;SDS011;53703;50.326;19.122;2023-06-22T03:52:08;11.80;;;6.50;;
66800;SDS011;53703;50.326;19.122;2023-06-22T03:55:02;12.70;;;7.10;;
66800;SDS011;53703;50.326;19.122;2023-06-22T03:57:58;20.40;;;6.90;;
66800;SDS011;53703;50.326;19.122;2023-06-22T04:00:57;13.50;;;7.50;;
66800;SDS011;53703;50.326;19.122;2023-06-22T04:03:51;12.90;;;7.00;;
66800;SDS011;53703;50.326;19.122;2023-06-22T04:06:45;16.20;;;7.70;;
66800;SDS011;53703;50.326;19.122;2023-06-22T04:09:39;15.90;;;6.90;;
66800;SDS011;53703;50.326;19.122;2023-06-22T04:12:33;12.10;;;6.50;;
66800;SDS011;53703;50.326;19.122;2023-06-22T04:15:27;15.30;;;7.80;;
66800;SDS011;53703;50.326;19.122;2023-06-22T04:18:21;17.00;;;7.60;;
66800;SDS011;53703;50.326;19.122;2023-06-22T04:21:14;15.40;;;7.70;;
66800;SDS011;53703;50.326;19.122;2023-06-22T04:24:10;14.60;;;8.40;;
66800;SDS011;53703;50.326;19.122;2023-06-22T04:27:05;16.20;;;8.20;;
66800;SDS011;53703;50.326;19.122;2023-06-22T04:29:59;17.20;;;8.50;;
66800;SDS011;53703;50.326;19.122;2023-06-22T04:32:53;14.00;;;7.80;;
66800;SDS011;53703;50.326;19.122;2023-06-22T04:35:48;17.90;;;8.50;;
66800;SDS011;53703;50.326;19.122;2023-06-22T04:38:43;16.60;;;8.40;;
66800;SDS011;53703;50.326;19.122;2023-06-22T04:41:37;16.60;;;8.90;;
66800;SDS011;53703;50.326;19.122;2023-06-22T04:44:35;17.10;;;8.60;;
66800;SDS011;53703;50.326;19.122;2023-06-22T04:47:31;18.70;;;8.80;;
66800;SDS011;53703;50.326;19.122;2023-06-22T04:50:24;15.10;;;8.80;;
66800;SDS011;53703;50.326;19.122;2023-06-22T04:53:19;17.10;;;9.40;;
66800;SDS011;53703;50.326;19.122;2023-06-22T04:56:13;17.20;;;8.60;;
66800;SDS011;53703;50.326;19.122;2023-06-22T04:59:08;19.00;;;9.40;;
66800;SDS011;53703;50.326;19.122;2023-06-22T05:02:04;19.20;;;10.50;;
66800;SDS011;53703;50.326;19.122;2023-06-22T05:04:58;17.70;;;10.00;;
66800;SDS011;53703;50.326;19.122;2023-06-22T05:07:58;19.20;;;10.70;;
66800;SDS011;53703;50.326;19.122;2023-06-22T05:10:58;19.00;;;11.00;;
66800;SDS011;53703;50.326;19.122;2023-06-22T05:13:55;20.40;;;12.50;;
66800;SDS011;53703;50.326;19.122;2023-06-22T05:16:50;22.60;;;12.00;;
66800;SDS011;53703;50.326;19.122;2023-06-22T05:19:43;23.10;;;12.90;;
66800;SDS011;53703;50.326;19.122;2023-06-22T05:22:39;21.80;;;12.20;;
66800;SDS011;53703;50.326;19.122;2023-06-22T05:28:35;27.90;;;15.50;;
66800;SDS011;53703;50.326;19.122;2023-06-22T05:31:30;24.60;;;15.00;;
66800;SDS011;53703;50.326;19.122;2023-06-22T05:34:24;24.30;;;14.00;;
66800;SDS011;53703;50.326;19.122;2023-06-22T05:37:18;28.00;;;15.50;;
66800;SDS011;53703;50.326;19.122;2023-06-22T05:40:13;28.30;;;16.90;;
66800;SDS011;53703;50.326;19.122;2023-06-22T05:43:07;30.30;;;18.30;;
66800;SDS011;53703;50.326;19.122;2023-06-22T05:46:02;28.00;;;16.30;;
66800;SDS011;53703;50.326;19.122;2023-06-22T05:48:56;24.90;;;10.70;;
66800;SDS011;53703;50.326;19.122;2023-06-22T05:51:50;26.90;;;16.70;;
66800;SDS011;53703;50.326;19.122;2023-06-22T05:54:45;28.70;;;17.00;;
66800;SDS011;53703;50.326;19.122;2023-06-22T05:57:39;28.50;;;17.20;;
66800;SDS011;53703;50.326;19.122;2023-06-22T06:00:34;27.10;;;16.80;;
66800;SDS011;53703;50.326;19.122;2023-06-22T06:03:28;27.80;;;17.30;;
66800;SDS011;53703;50.326;19.122;2023-06-22T06:06:23;29.20;;;18.10;;
66800;SDS011;53703;50.326;19.122;2023-06-22T06:09:19;27.90;;;18.00;;
66800;SDS011;53703;50.326;19.122;2023-06-22T06:12:13;30.60;;;18.70;;
66800;SDS011;53703;50.326;19.122;2023-06-22T06:15:09;29.90;;;17.90;;
66800;SDS011;53703;50.326;19.122;2023-06-22T06:18:03;31.20;;;19.30;;
66800;SDS011;53703;50.326;19.122;2023-06-22T06:20:59;27.70;;;18.20;;
66800;SDS011;53703;50.326;19.122;2023-06-22T06:23:53;29.50;;;16.60;;
66800;SDS011;53703;50.326;19.122;2023-06-22T06:26:48;26.90;;;16.60;;
66800;SDS011;53703;50.326;19.122;2023-06-22T06:29:42;24.20;;;16.00;;
66800;SDS011;53703;50.326;19.122;2023-06-22T06:32:39;25.40;;;15.20;;
66800;SDS011;53703;50.326;19.122;2023-06-22T06:35:36;25.40;;;15.60;;
66800;SDS011;53703;50.326;19.122;2023-06-22T06:38:30;21.10;;;14.20;;
66800;SDS011;53703;50.326;19.122;2023-06-22T06:41:24;21.30;;;14.10;;
66800;SDS011;53703;50.326;19.122;2023-06-22T06:44:18;24.10;;;15.40;;
66800;SDS011;53703;50.326;19.122;2023-06-22T06:47:13;21.50;;;14.20;;
66800;SDS011;53703;50.326;19.122;2023-06-22T06:50:09;20.10;;;13.30;;
66800;SDS011;53703;50.326;19.122;2023-06-22T06:53:04;19.00;;;12.90;;
66800;SDS011;53703;50.326;19.122;2023-06-22T06:55:58;22.20;;;13.80;;
66800;SDS011;53703;50.326;19.122;2023-06-22T06:58:54;19.60;;;12.90;;
66800;SDS011;53703;50.326;19.122;2023-06-22T07:01:50;22.40;;;13.90;;
66800;SDS011;53703;50.326;19.122;2023-06-22T07:04:44;20.60;;;13.60;;
66800;SDS011;53703;50.326;19.122;2023-06-22T07:07:38;19.80;;;13.10;;
66800;SDS011;53703;50.326;19.122;2023-06-22T07:10:34;18.50;;;12.60;;
66800;SDS011;53703;50.326;19.122;2023-06-22T07:13:28;20.60;;;12.70;;
66800;SDS011;53703;50.326;19.122;2023-06-22T07:16:23;21.10;;;13.10;;
66800;SDS011;53703;50.326;19.122;2023-06-22T07:19:25;18.90;;;12.80;;
66800;SDS011;53703;50.326;19.122;2023-06-22T07:22:19;19.00;;;12.60;;
66800;SDS011;53703;50.326;19.122;2023-06-22T07:25:13;17.90;;;11.30;;
66800;SDS011;53703;50.326;19.122;2023-06-22T07:28:08;17.80;;;10.90;;
66800;SDS011;53703;50.326;19.122;2023-06-22T07:31:02;16.10;;;11.10;;
66800;SDS011;53703;50.326;19.122;2023-06-22T07:33:57;13.80;;;10.50;;
66800;SDS011;53703;50.326;19.122;2023-06-22T07:36:50;14.60;;;10.10;;
66800;SDS011;53703;50.326;19.122;2023-06-22T07:39:45;14.30;;;10.00;;
66800;SDS011;53703;50.326;19.122;2023-06-22T07:42:41;15.30;;;10.20;;
66800;SDS011;53703;50.326;19.122;2023-06-22T07:45:37;14.60;;;9.50;;
66800;SDS011;53703;50.326;19.122;2023-06-22T07:48:32;15.90;;;9.90;;
66800;SDS011;53703;50.326;19.122;2023-06-22T07:51:28;14.80;;;9.60;;
66800;SDS011;53703;50.326;19.122;2023-06-22T07:54:22;13.50;;;9.40;;
66800;SDS011;53703;50.326;19.122;2023-06-22T07:57:16;13.10;;;9.20;;
66800;SDS011;53703;50.326;19.122;2023-06-22T08:00:01;13.60;;;9.50;;
66800;SDS011;53703;50.326;19.122;2023-06-22T08:03:03;12.70;;;8.90;;
66800;SDS011;53703;50.326;19.122;2023-06-22T08:05:59;14.20;;;9.40;;
66800;SDS011;53703;50.326;19.122;2023-06-22T08:08:55;14.20;;;8.50;;
66800;SDS011;53703;50.326;19.122;2023-06-22T08:11:50;13.60;;;9.10;;
66800;SDS011;53703;50.326;19.122;2023-06-22T08:14:45;14.30;;;9.50;;
66800;SDS011;53703;50.326;19.122;2023-06-22T08:17:39;13.00;;;9.40;;
66800;SDS011;53703;50.326;19.122;2023-06-22T08:20:33;13.70;;;8.90;;
66800;SDS011;53703;50.326;19.122;2023-06-22T08:23:27;12.10;;;8.60;;
66800;SDS011;53703;50.326;19.122;2023-06-22T08:26:22;24.70;;;14.90;;
66800;SDS011;53703;50.326;19.122;2023-06-22T08:29:16;15.00;;;9.50;;
66800;SDS011;53703;50.326;19.122;2023-06-22T08:32:11;14.30;;;9.20;;
66800;SDS011;53703;50.326;19.122;2023-06-22T08:35:07;13.60;;;9.20;;
66800;SDS011;53703;50.326;19.122;2023-06-22T08:38:01;12.80;;;8.50;;
66800;SDS011;53703;50.326;19.122;2023-06-22T08:40:56;14.00;;;8.70;;
66800;SDS011;53703;50.326;19.122;2023-06-22T08:43:51;12.30;;;8.60;;
66800;SDS011;53703;50.326;19.122;2023-06-22T08:46:45;11.60;;;8.40;;
66800;SDS011;53703;50.326;19.122;2023-06-22T08:49:42;13.20;;;9.20;;
66800;SDS011;53703;50.326;19.122;2023-06-22T08:52:36;12.10;;;8.70;;
66800;SDS011;53703;50.326;19.122;2023-06-22T08:55:33;12.30;;;8.50;;
66800;SDS011;53703;50.326;19.122;2023-06-22T08:58:27;13.40;;;8.60;;
66800;SDS011;53703;50.326;19.122;2023-06-22T09:01:21;13.20;;;8.50;;
66800;SDS011;53703;50.326;19.122;2023-06-22T09:04:16;14.50;;;8.50;;
66800;SDS011;53703;50.326;19.122;2023-06-22T09:07:13;12.70;;;8.90;;
66800;SDS011;53703;50.326;19.122;2023-06-22T09:10:14;13.80;;;8.60;;
66800;SDS011;53703;50.326;19.122;2023-06-22T09:13:08;12.00;;;8.10;;
66800;SDS011;53703;50.326;19.122;2023-06-22T09:16:02;12.30;;;8.40;;
66800;SDS011;53703;50.326;19.122;2023-06-22T09:18:42;12.90;;;8.50;;
66800;SDS011;53703;50.326;19.122;2023-06-22T09:21:24;12.30;;;8.20;;
66800;SDS011;53703;50.326;19.122;2023-06-22T09:24:18;14.00;;;9.70;;
66800;SDS011;53703;50.326;19.122;2023-06-22T09:27:13;14.00;;;9.80;;
66800;SDS011;53703;50.326;19.122;2023-06-22T09:30:09;12.70;;;8.60;;
66800;SDS011;53703;50.326;19.122;2023-06-22T09:33:04;14.00;;;8.90;;
66800;SDS011;53703;50.326;19.122;2023-06-22T09:35:58;13.60;;;9.70;;
66800;SDS011;53703;50.326;19.122;2023-06-22T09:38:52;13.50;;;8.80;;
66800;SDS011;53703;50.326;19.122;2023-06-22T09:41:49;15.10;;;9.80;;
66800;SDS011;53703;50.326;19.122;2023-06-22T09:44:43;12.60;;;9.00;;
66800;SDS011;53703;50.326;19.122;2023-06-22T09:47:37;12.40;;;9.00;;
66800;SDS011;53703;50.326;19.122;2023-06-22T09:50:33;12.80;;;8.70;;
66800;SDS011;53703;50.326;19.122;2023-06-22T09:53:27;13.00;;;8.70;;
66800;SDS011;53703;50.326;19.122;2023-06-22T09:56:22;12.80;;;8.90;;
66800;SDS011;53703;50.326;19.122;2023-06-22T09:59:20;13.80;;;9.40;;
66800;SDS011;53703;50.326;19.122;2023-06-22T10:02:14;13.20;;;9.00;;
66800;SDS011;53703;50.326;19.122;2023-06-22T10:05:08;11.90;;;8.60;;
66800;SDS011;53703;50.326;19.122;2023-06-22T10:08:03;11.70;;;8.90;;
66800;SDS011;53703;50.326;19.122;2023-06-22T10:10:58;12.80;;;8.50;;
66800;SDS011;53703;50.326;19.122;2023-06-22T10:13:53;11.80;;;9.20;;
66800;SDS011;53703;50.326;19.122;2023-06-22T10:16:47;11.90;;;9.00;;
66800;SDS011;53703;50.326;19.122;2023-06-22T10:19:41;12.40;;;9.50;;
66800;SDS011;53703;50.326;19.122;2023-06-22T10:22:36;15.00;;;10.10;;
66800;SDS011;53703;50.326;19.122;2023-06-22T10:25:30;13.10;;;9.60;;
66800;SDS011;53703;50.326;19.122;2023-06-22T10:28:24;15.30;;;9.80;;
66800;SDS011;53703;50.326;19.122;2023-06-22T10:31:22;14.30;;;9.70;;
66800;SDS011;53703;50.326;19.122;2023-06-22T10:34:17;14.30;;;10.10;;
66800;SDS011;53703;50.326;19.122;2023-06-22T10:37:11;14.30;;;10.20;;
66800;SDS011;53703;50.326;19.122;2023-06-22T10:40:07;13.00;;;9.50;;
66800;SDS011;53703;50.326;19.122;2023-06-22T10:45:55;13.80;;;9.40;;
66800;SDS011;53703;50.326;19.122;2023-06-22T10:48:49;12.80;;;9.00;;
66800;SDS011;53703;50.326;19.122;2023-06-22T10:51:45;14.40;;;9.70;;
66800;SDS011;53703;50.326;19.122;2023-06-22T10:54:39;14.50;;;9.80;;
66800;SDS011;53703;50.326;19.122;2023-06-22T10:57:34;14.00;;;9.50;;
66800;SDS011;53703;50.326;19.122;2023-06-22T11:00:29;14.00;;;9.30;;
66800;SDS011;53703;50.326;19.122;2023-06-22T11:03:24;14.00;;;9.80;;
66800;SDS011;53703;50.326;19.122;2023-06-22T11:06:18;14.80;;;9.80;;
66800;SDS011;53703;50.326;19.122;2023-06-22T11:09:13;13.70;;;9.80;;
66800;SDS011;53703;50.326;19.122;2023-06-22T11:12:17;13.80;;;9.80;;
66800;SDS011;53703;50.326;19.122;2023-06-22T11:15:12;14.10;;;9.60;;
66800;SDS011;53703;50.326;19.122;2023-06-22T11:18:06;14.30;;;9.40;;
66800;SDS011;53703;50.326;19.122;2023-06-22T11:21:00;14.00;;;9.10;;
66800;SDS011;53703;50.326;19.122;2023-06-22T11:23:54;13.50;;;9.40;;
66800;SDS011;53703;50.326;19.122;2023-06-22T11:26:50;14.40;;;9.50;;
66800;SDS011;53703;50.326;19.122;2023-06-22T11:29:44;13.10;;;9.30;;
66800;SDS011;53703;50.326;19.122;2023-06-22T11:32:38;15.50;;;9.60;;
66800;SDS011;53703;50.326;19.122;2023-06-22T11:35:33;13.40;;;9.60;;
66800;SDS011;53703;50.326;19.122;2023-06-22T11:38:27;14.60;;;9.90;;
66800;SDS011;53703;50.326;19.122;2023-06-22T11:41:22;14.40;;;9.50;;
66800;SDS011;53703;50.326;19.122;2023-06-22T11:44:16;12.30;;;8.90;;
66800;SDS011;53703;50.326;19.122;2023-06-22T11:47:11;9.20;;;9.20;;
66800;SDS011;53703;50.326;19.122;2023-06-22T11:50:06;14.60;;;9.40;;
66800;SDS011;53703;50.326;19.122;2023-06-22T11:53:01;13.50;;;9.40;;
66800;SDS011;53703;50.326;19.122;2023-06-22T11:55:55;14.20;;;9.10;;
66800;SDS011;53703;50.326;19.122;2023-06-22T11:58:52;15.20;;;9.40;;
66800;SDS011;53703;50.326;19.122;2023-06-22T12:01:49;13.40;;;9.10;;
66800;SDS011;53703;50.326;19.122;2023-06-22T12:05:05;13.00;;;9.60;;
66800;SDS011;53703;50.326;19.122;2023-06-22T12:08:23;14.30;;;8.90;;
66800;SDS011;53703;50.326;19.122;2023-06-22T12:11:25;14.40;;;9.30;;
66800;SDS011;53703;50.326;19.122;2023-06-22T12:14:43;12.20;;;8.70;;
66800;SDS011;53703;50.326;19.122;2023-06-22T12:17:37;14.60;;;9.10;;
66800;SDS011;53703;50.326;19.122;2023-06-22T12:20:34;12.10;;;8.90;;
66800;SDS011;53703;50.326;19.122;2023-06-22T12:23:29;14.50;;;8.80;;
66800;SDS011;53703;50.326;19.122;2023-06-22T12:26:30;13.20;;;8.90;;
66800;SDS011;53703;50.326;19.122;2023-06-22T12:29:53;13.40;;;9.00;;
66800;SDS011;53703;50.326;19.122;2023-06-22T12:33:00;13.20;;;9.20;;
66800;SDS011;53703;50.326;19.122;2023-06-22T12:36:15;13.30;;;9.60;;
66800;SDS011;53703;50.326;19.122;2023-06-22T12:39:07;16.20;;;10.20;;
66800;SDS011;53703;50.326;19.122;2023-06-22T12:42:04;13.70;;;9.70;;
66800;SDS011;53703;50.326;19.122;2023-06-22T12:44:59;14.40;;;10.10;;
66800;SDS011;53703;50.326;19.122;2023-06-22T12:47:54;14.70;;;9.70;;
66800;SDS011;53703;50.326;19.122;2023-06-22T12:50:50;13.40;;;9.20;;
66800;SDS011;53703;50.326;19.122;2023-06-22T12:53:43;13.80;;;9.60;;
66800;SDS011;53703;50.326;19.122;2023-06-22T12:56:38;13.10;;;9.20;;
66800;SDS011;53703;50.326;19.122;2023-06-22T12:59:34;13.60;;;9.20;;
66800;SDS011;53703;50.326;19.122;2023-06-22T13:02:28;15.40;;;9.90;;
66800;SDS011;53703;50.326;19.122;2023-06-22T13:05:23;14.00;;;9.60;;
66800;SDS011;53703;50.326;19.122;2023-06-22T13:08:17;12.80;;;9.20;;
66800;SDS011;53703;50.326;19.122;2023-06-22T13:11:19;14.80;;;10.00;;
66800;SDS011;53703;50.326;19.122;2023-06-22T13:14:13;12.30;;;8.40;;
66800;SDS011;53703;50.326;19.122;2023-06-22T13:17:08;13.70;;;9.60;;
66800;SDS011;53703;50.326;19.122;2023-06-22T13:20:04;12.80;;;9.00;;
66800;SDS011;53703;50.326;19.122;2023-06-22T13:22:59;13.40;;;8.70;;
66800;SDS011;53703;50.326;19.122;2023-06-22T13:25:53;13.80;;;9.90;;
66800;SDS011;53703;50.326;19.122;2023-06-22T13:28:48;12.90;;;9.20;;
66800;SDS011;53703;50.326;19.122;2023-06-22T13:31:42;13.70;;;9.50;;
66800;SDS011;53703;50.326;19.122;2023-06-22T13:34:36;13.70;;;9.20;;
66800;SDS011;53703;50.326;19.122;2023-06-22T13:37:31;12.50;;;9.20;;
66800;SDS011;53703;50.326;19.122;2023-06-22T13:40:25;12.70;;;9.00;;
66800;SDS011;53703;50.326;19.122;2023-06-22T13:43:19;13.30;;;9.40;;
66800;SDS011;53703;50.326;19.122;2023-06-22T13:46:13;13.80;;;9.60;;
66800;SDS011;53703;50.326;19.122;2023-06-22T13:48:56;14.90;;;9.00;;
66800;SDS011;53703;50.326;19.122;2023-06-22T13:51:50;17.60;;;9.20;;
66800;SDS011;53703;50.326;19.122;2023-06-22T13:54:45;14.40;;;9.20;;
66800;SDS011;53703;50.326;19.122;2023-06-22T13:57:39;13.70;;;9.60;;
66800;SDS011;53703;50.326;19.122;2023-06-22T14:00:35;13.30;;;8.80;;
66800;SDS011;53703;50.326;19.122;2023-06-22T14:03:44;15.40;;;8.80;;
66800;SDS011;53703;50.326;19.122;2023-06-22T14:06:39;13.80;;;8.50;;
66800;SDS011;53703;50.326;19.122;2023-06-22T14:09:33;13.00;;;8.60;;
66800;SDS011;53703;50.326;19.122;2023-06-22T14:12:28;14.20;;;10.00;;
66800;SDS011;53703;50.326;19.122;2023-06-22T14:15:22;13.60;;;8.90;;
66800;SDS011;53703;50.326;19.122;2023-06-22T14:18:16;13.90;;;9.10;;
66800;SDS011;53703;50.326;19.122;2023-06-22T14:21:11;13.70;;;9.30;;
66800;SDS011;53703;50.326;19.122;2023-06-22T14:24:05;15.60;;;9.10;;
66800;SDS011;53703;50.326;19.122;2023-06-22T14:27:00;15.10;;;9.50;;
66800;SDS011;53703;50.326;19.122;2023-06-22T14:29:56;12.90;;;9.30;;
66800;SDS011;53703;50.326;19.122;2023-06-22T14:32:50;13.00;;;9.20;;
66800;SDS011;53703;50.326;19.122;2023-06-22T14:35:32;14.70;;;9.70;;
66800;SDS011;53703;50.326;19.122;2023-06-22T14:38:26;15.80;;;9.40;;
66800;SDS011;53703;50.326;19.122;2023-06-22T14:41:20;15.40;;;10.30;;
66800;SDS011;53703;50.326;19.122;2023-06-22T14:44:14;13.30;;;9.80;;
66800;SDS011;53703;50.326;19.122;2023-06-22T14:47:11;15.30;;;10.20;;
66800;SDS011;53703;50.326;19.122;2023-06-22T14:50:06;14.20;;;9.70;;
66800;SDS011;53703;50.326;19.122;2023-06-22T14:53:01;13.40;;;9.60;;
66800;SDS011;53703;50.326;19.122;2023-06-22T14:56:18;12.00;;;8.40;;
66800;SDS011;53703;50.326;19.122;2023-06-22T14:59:19;14.10;;;8.70;;
66800;SDS011;53703;50.326;19.122;2023-06-22T15:02:13;17.40;;;9.30;;
66800;SDS011;53703;50.326;19.122;2023-06-22T15:05:08;12.90;;;8.60;;
66800;SDS011;53703;50.326;19.122;2023-06-22T15:08:03;14.70;;;9.60;;
66800;SDS011;53703;50.326;19.122;2023-06-22T15:11:01;13.90;;;9.40;;
66800;SDS011;53703;50.326;19.122;2023-06-22T15:13:57;12.10;;;8.60;;
66800;SDS011;53703;50.326;19.122;2023-06-22T15:16:52;13.40;;;9.00;;
66800;SDS011;53703;50.326;19.122;2023-06-22T15:19:53;11.30;;;7.80;;
66800;SDS011;53703;50.326;19.122;2023-06-22T15:22:48;11.70;;;7.70;;
66800;SDS011;53703;50.326;19.122;2023-06-22T15:25:42;12.50;;;8.50;;
66800;SDS011;53703;50.326;19.122;2023-06-22T15:28:36;12.80;;;8.40;;
66800;SDS011;53703;50.326;19.122;2023-06-22T15:31:32;12.60;;;8.20;;
66800;SDS011;53703;50.326;19.122;2023-06-22T15:34:26;11.50;;;8.50;;
66800;SDS011;53703;50.326;19.122;2023-06-22T15:37:20;11.20;;;8.40;;
66800;SDS011;53703;50.326;19.122;2023-06-22T15:40:15;12.20;;;8.80;;
66800;SDS011;53703;50.326;19.122;2023-06-22T15:43:11;11.10;;;8.10;;
66800;SDS011;53703;50.326;19.122;2023-06-22T15:49:21;11.60;;;7.90;;
66800;SDS011;53703;50.326;19.122;2023-06-22T15:52:15;11.30;;;8.30;;
66800;SDS011;53703;50.326;19.122;2023-06-22T15:55:13;12.10;;;8.80;;
66800;SDS011;53703;50.326;19.122;2023-06-22T15:58:09;12.90;;;8.80;;
66800;SDS011;53703;50.326;19.122;2023-06-22T16:00:59;13.00;;;8.50;;
66800;SDS011;53703;50.326;19.122;2023-06-22T16:03:47;11.90;;;8.40;;
66800;SDS011;53703;50.326;19.122;2023-06-22T16:06:43;12.40;;;9.00;;
66800;SDS011;53703;50.326;19.122;2023-06-22T16:09:38;11.90;;;8.50;;
66800;SDS011;53703;50.326;19.122;2023-06-22T16:12:33;12.90;;;8.50;;
66800;SDS011;53703;50.326;19.122;2023-06-22T16:15:27;12.00;;;8.80;;
66800;SDS011;53703;50.326;19.122;2023-06-22T16:18:21;13.30;;;9.10;;
66800;SDS011;53703;50.326;19.122;2023-06-22T16:21:17;14.40;;;9.40;;
66800;SDS011;53703;50.326;19.122;2023-06-22T16:24:13;12.00;;;8.80;;
66800;SDS011;53703;50.326;19.122;2023-06-22T16:27:07;12.50;;;8.50;;
66800;SDS011;53703;50.326;19.122;2023-06-22T16:30:02;12.10;;;8.40;;
66800;SDS011;53703;50.326;19.122;2023-06-22T16:32:52;12.00;;;8.30;;
66800;SDS011;53703;50.326;19.122;2023-06-22T16:35:51;11.70;;;8.20;;
66800;SDS011;53703;50.326;19.122;2023-06-22T16:38:45;11.40;;;8.20;;
66800;SDS011;53703;50.326;19.122;2023-06-22T16:41:42;12.50;;;9.00;;
66800;SDS011;53703;50.326;19.122;2023-06-22T16:44:39;13.20;;;8.80;;
66800;SDS011;53703;50.326;19.122;2023-06-22T16:47:33;14.00;;;9.00;;
66800;SDS011;53703;50.326;19.122;2023-06-22T16:50:28;12.60;;;8.60;;
66800;SDS011;53703;50.326;19.122;2023-06-22T16:53:22;13.90;;;8.60;;
66800;SDS011;53703;50.326;19.122;2023-06-22T16:56:17;11.90;;;8.70;;
66800;SDS011;53703;50.326;19.122;2023-06-22T16:59:11;11.70;;;8.50;;
66800;SDS011;53703;50.326;19.122;2023-06-22T17:02:06;12.10;;;8.70;;
66800;SDS011;53703;50.326;19.122;2023-06-22T17:05:09;14.10;;;8.80;;
66800;SDS011;53703;50.326;19.122;2023-06-22T17:08:05;11.80;;;7.70;;
66800;SDS011;53703;50.326;19.122;2023-06-22T17:11:05;15.00;;;8.50;;